createdAt,value
2023-04-10T00:00:46.425Z,42.08
2023-04-10T00:01:46.471Z,42.50
2023-04-10T00:02:46.502Z,42.54
2023-04-10T00:03:46.544Z,42.71
2023-04-10T00:04:46.443Z,42.75
2023-04-10T00:05:46.401Z,43.15
2023-04-10T00:06:46.358Z,43.17
2023-04-10T00:07:46.364Z,43.10
2023-04-10T00:08:46.377Z,42.89
2023-04-10T00:09:46.339Z,43.01
2023-04-10T00:10:46.312Z,43.01
2023-04-10T00:11:46.346Z,42.91
2023-04-10T00:12:46.387Z,42.77
2023-04-10T00:13:46.393Z,42.85
2023-04-10T00:14:46.402Z,42.90
2023-04-10T00:15:46.432Z,42.90
2023-04-10T00:16:46.505Z,42.79
2023-04-10T00:17:46.462Z,42.98
2023-04-10T00:18:46.444Z,43.21
2023-04-10T00:19:46.481Z,43.21
2023-04-10T00:20:46.465Z,43.29
2023-04-10T00:21:46.491Z,42.91
2023-04-10T00:22:46.497Z,42.83
2023-04-10T00:23:46.481Z,43.08
2023-04-10T00:24:46.481Z,43.09
2023-04-10T00:25:46.493Z,42.84
2023-04-10T00:26:46.493Z,42.84
2023-04-10T00:27:46.503Z,42.79
2023-04-10T00:28:46.510Z,42.78
2023-04-10T00:29:46.525Z,42.90
2023-04-10T00:30:46.547Z,42.71
2023-04-10T00:31:46.598Z,42.66
2023-04-10T00:32:46.613Z,42.82
2023-04-10T00:33:46.570Z,42.80
2023-04-10T00:34:46.591Z,42.69
2023-04-10T00:35:46.630Z,42.86
2023-04-10T00:36:46.609Z,42.83
2023-04-10T00:37:46.613Z,42.84
2023-04-10T00:38:46.639Z,42.69
2023-04-10T00:39:46.656Z,42.76
2023-04-10T00:40:46.710Z,42.82
2023-04-10T00:41:46.709Z,42.89
2023-04-10T00:42:46.697Z,43.10
2023-04-10T00:43:46.718Z,43.36
2023-04-10T00:44:46.718Z,43.01
2023-04-10T00:45:47.932Z,43.08
2023-04-10T00:46:46.699Z,42.96
2023-04-10T00:47:46.710Z,42.93
2023-04-10T00:48:46.660Z,43.02
2023-04-10T00:49:46.670Z,42.92
2023-04-10T00:50:46.677Z,42.56
2023-04-10T00:51:46.652Z,42.57
2023-04-10T00:52:46.634Z,42.70
2023-04-10T00:53:46.672Z,42.77
2023-04-10T00:54:46.624Z,42.80
2023-04-10T00:55:46.635Z,42.81
2023-04-10T00:56:46.597Z,42.70
2023-04-10T00:57:46.602Z,42.49
2023-04-10T00:58:46.596Z,42.43
2023-04-10T00:59:46.640Z,42.50
2023-04-10T01:00:46.629Z,42.45
2023-04-10T01:01:46.641Z,42.64
2023-04-10T01:02:46.695Z,42.64
2023-04-10T01:03:46.656Z,42.39
2023-04-10T01:04:46.563Z,42.36
2023-04-10T01:05:46.540Z,42.57
2023-04-10T01:06:46.608Z,42.36
2023-04-10T01:07:46.567Z,42.30
2023-04-10T01:08:46.539Z,42.48
2023-04-10T01:09:46.539Z,42.63
2023-04-10T01:10:46.565Z,42.73
2023-04-10T01:11:46.562Z,42.66
2023-04-10T01:12:46.493Z,42.64
2023-04-10T01:13:46.509Z,42.71
2023-04-10T01:14:46.503Z,42.73
2023-04-10T01:15:46.481Z,42.89
2023-04-10T01:16:46.595Z,42.86
2023-04-10T01:17:46.519Z,42.88
2023-04-10T01:18:46.499Z,42.78
2023-04-10T01:19:46.513Z,42.84
2023-04-10T01:20:46.481Z,42.74
2023-04-10T01:21:46.499Z,42.76
2023-04-10T01:22:46.488Z,42.90
2023-04-10T01:23:46.451Z,42.73
2023-04-10T01:24:46.444Z,42.71
2023-04-10T01:25:46.439Z,42.70
2023-04-10T01:26:46.442Z,42.71
2023-04-10T01:27:46.424Z,42.77
2023-04-10T01:28:46.453Z,42.87
2023-04-10T01:29:46.419Z,43.23
2023-04-10T01:30:46.972Z,43.09
2023-04-10T01:31:46.425Z,43.34
2023-04-10T01:32:46.432Z,43.18
2023-04-10T01:33:46.367Z,43.05
2023-04-10T01:34:46.371Z,43.12
2023-04-10T01:35:46.381Z,43.08
2023-04-10T01:36:46.386Z,43.16
2023-04-10T01:37:46.388Z,43.56
2023-04-10T01:38:46.368Z,43.66
2023-04-10T01:39:46.310Z,43.53
2023-04-10T01:40:46.329Z,43.53
2023-04-10T01:41:46.319Z,43.55
2023-04-10T01:42:46.311Z,43.43
2023-04-10T01:43:46.290Z,43.34
2023-04-10T01:44:46.318Z,43.54
2023-04-10T01:45:46.303Z,43.71
2023-04-10T01:46:46.429Z,43.44
2023-04-10T01:47:46.338Z,43.43
2023-04-10T01:48:46.280Z,43.55
2023-04-10T01:49:46.279Z,43.71
2023-04-10T01:50:46.253Z,43.92
2023-04-10T01:51:46.379Z,44.01
2023-04-10T01:52:46.394Z,44.38
2023-04-10T01:53:46.487Z,44.31
2023-04-10T01:54:46.503Z,44.42
2023-04-10T01:55:46.518Z,44.52
2023-04-10T01:56:46.553Z,44.26
2023-04-10T01:57:46.679Z,44.15
2023-04-10T01:58:46.571Z,44.70
2023-04-10T01:59:46.634Z,44.30
2023-04-10T02:00:46.643Z,44.35
2023-04-10T02:01:46.751Z,44.64
2023-04-10T02:02:46.948Z,44.52
2023-04-10T02:03:46.875Z,44.66
2023-04-10T02:04:46.955Z,44.59
2023-04-10T02:05:46.878Z,44.56
2023-04-10T02:06:46.928Z,44.43
2023-04-10T02:07:46.988Z,44.60
2023-04-10T02:08:47.037Z,44.36
2023-04-10T02:09:47.985Z,44.10
2023-04-10T02:10:47.095Z,43.85
2023-04-10T02:11:47.080Z,43.73
2023-04-10T02:12:47.115Z,43.64
2023-04-10T02:13:47.136Z,43.71
2023-04-10T02:14:47.122Z,43.66
2023-04-10T02:15:47.205Z,43.41
2023-04-10T02:16:47.204Z,43.58
2023-04-10T02:17:47.308Z,43.69
2023-04-10T02:18:47.264Z,43.37
2023-04-10T02:19:47.277Z,43.63
2023-04-10T02:20:47.308Z,43.40
2023-04-10T02:21:47.386Z,43.38
2023-04-10T02:22:47.356Z,43.43
2023-04-10T02:23:47.395Z,43.44
2023-04-10T02:24:47.392Z,43.09
2023-04-10T02:25:47.440Z,43.04
2023-04-10T02:26:47.519Z,43.03
2023-04-10T02:27:47.492Z,43.15
2023-04-10T02:28:47.547Z,43.28
2023-04-10T02:29:47.554Z,43.18
2023-04-10T02:30:47.485Z,43.16
2023-04-10T02:31:47.656Z,43.17
2023-04-10T02:32:47.614Z,43.14
2023-04-10T02:33:47.639Z,43.00
2023-04-10T02:34:47.697Z,43.13
2023-04-10T02:35:47.678Z,43.44
2023-04-10T02:36:47.689Z,43.17
2023-04-10T02:37:47.724Z,43.16
2023-04-10T02:38:47.752Z,43.31
2023-04-10T02:39:47.805Z,43.21
2023-04-10T02:40:47.816Z,43.00
2023-04-10T02:41:47.938Z,43.01
2023-04-10T02:42:47.885Z,43.02
2023-04-10T02:43:47.902Z,43.10
2023-04-10T02:44:47.982Z,42.96
2023-04-10T02:45:47.999Z,43.10
2023-04-10T02:46:48.117Z,42.93
2023-04-10T02:47:48.160Z,42.92
2023-04-10T02:48:48.161Z,42.91
2023-04-10T02:49:48.218Z,42.93
2023-04-10T02:50:48.247Z,42.91
2023-04-10T02:51:48.293Z,42.79
2023-04-10T02:52:48.377Z,42.82
2023-04-10T02:53:56.170Z,42.83
2023-04-10T02:54:48.682Z,42.87
2023-04-10T02:55:48.360Z,42.80
2023-04-10T02:56:48.361Z,42.90
2023-04-10T02:57:48.360Z,43.04
2023-04-10T02:58:48.338Z,43.08
2023-04-10T02:59:48.354Z,42.98
2023-04-10T03:00:48.327Z,43.63
2023-04-10T03:01:48.446Z,43.26
2023-04-10T03:02:48.457Z,43.27
2023-04-10T03:03:48.433Z,43.18
2023-04-10T03:04:48.390Z,43.32
2023-04-10T03:05:48.300Z,43.11
2023-04-10T03:06:48.291Z,43.16
2023-04-10T03:07:48.331Z,43.33
2023-04-10T03:08:48.368Z,43.53
2023-04-10T03:09:48.445Z,43.97
2023-04-10T03:10:48.490Z,43.93
2023-04-10T03:11:48.563Z,43.80
2023-04-10T03:12:48.640Z,44.17
2023-04-10T03:13:48.725Z,43.97
2023-04-10T03:14:48.765Z,43.82
2023-04-10T03:15:48.840Z,44.10
2023-04-10T03:16:49.928Z,44.30
2023-04-10T03:17:48.964Z,44.05
2023-04-10T03:18:48.970Z,44.13
2023-04-10T03:19:49.053Z,44.37
2023-04-10T03:20:49.107Z,44.39
2023-04-10T03:21:49.154Z,44.23
2023-04-10T03:22:49.222Z,44.03
2023-04-10T03:23:49.246Z,44.03
2023-04-10T03:24:49.292Z,44.06
2023-04-10T03:25:49.386Z,44.14
2023-04-10T03:26:49.433Z,44.21
2023-04-10T03:27:49.477Z,44.04
2023-04-10T03:28:49.540Z,44.12
2023-04-10T03:29:49.589Z,44.22
2023-04-10T03:30:49.626Z,44.25
2023-04-10T03:31:49.725Z,44.30
2023-04-10T03:32:49.723Z,44.34
2023-04-10T03:33:49.803Z,44.28
2023-04-10T03:34:49.775Z,44.39
2023-04-10T03:35:49.832Z,44.34
2023-04-10T03:36:49.903Z,44.41
2023-04-10T03:37:49.937Z,44.39
2023-04-10T03:38:49.905Z,44.37
2023-04-10T03:39:50.010Z,44.11
2023-04-10T03:40:50.053Z,44.04
2023-04-10T03:41:50.094Z,44.07
2023-04-10T03:44:10.282Z,44.13
2023-04-10T03:45:10.278Z,44.14
2023-04-10T03:46:10.236Z,43.97
2023-04-10T03:47:10.283Z,44.13
2023-04-10T03:48:10.242Z,44.09
2023-04-10T03:49:10.251Z,44.13
2023-04-10T03:50:10.229Z,44.35
2023-04-10T03:51:10.226Z,44.27
2023-04-10T03:52:10.228Z,44.30
2023-04-10T03:53:10.247Z,44.50
2023-04-10T03:54:10.215Z,44.70
2023-04-10T03:55:10.189Z,44.67
2023-04-10T03:56:10.183Z,45.02
2023-04-10T03:57:10.197Z,44.89
2023-04-10T03:58:10.175Z,44.76
2023-04-10T03:59:10.207Z,44.55
2023-04-10T04:00:10.123Z,44.66
2023-04-10T04:01:10.191Z,44.68
2023-04-10T04:02:10.325Z,44.65
2023-04-10T04:03:10.350Z,44.54
2023-04-10T04:04:10.246Z,44.64
2023-04-10T04:05:10.170Z,44.53
2023-04-10T04:06:10.127Z,44.89
2023-04-10T04:07:10.150Z,44.50
2023-04-10T04:08:10.106Z,44.55
2023-04-10T04:09:10.095Z,44.79
2023-04-10T04:10:10.120Z,44.89
2023-04-10T04:11:10.117Z,44.78
2023-04-10T04:12:10.135Z,44.63
2023-04-10T04:13:10.204Z,45.16
2023-04-10T04:14:10.129Z,45.16
2023-04-10T04:15:10.121Z,45.07
2023-04-10T04:16:10.199Z,45.06
2023-04-10T04:17:10.098Z,45.10
2023-04-10T04:18:10.189Z,44.87
2023-04-10T04:19:10.161Z,44.89
2023-04-10T04:20:10.239Z,44.79
2023-04-10T04:21:10.344Z,44.84
2023-04-10T04:22:10.389Z,44.68
2023-04-10T04:23:10.413Z,44.63
2023-04-10T04:24:10.442Z,44.65
2023-04-10T04:25:10.538Z,44.62
2023-04-10T04:26:10.565Z,44.74
2023-04-10T04:27:10.687Z,44.84
2023-04-10T04:28:10.786Z,44.86
2023-04-10T04:29:10.787Z,44.99
2023-04-10T04:30:10.870Z,44.77
2023-04-10T04:31:10.914Z,44.65
2023-04-10T04:32:11.039Z,45.01
2023-04-10T04:33:11.085Z,44.69
2023-04-10T04:34:11.127Z,44.80
2023-04-10T04:35:11.205Z,44.72
2023-04-10T04:36:11.292Z,44.55
2023-04-10T04:37:11.401Z,44.56
2023-04-10T04:38:11.361Z,44.50
2023-04-10T04:39:11.439Z,44.62
2023-04-10T04:40:11.325Z,44.54
2023-04-10T04:41:11.365Z,44.43
2023-04-10T04:42:11.397Z,44.67
2023-04-10T04:43:11.375Z,44.59
2023-04-10T04:44:11.368Z,44.63
2023-04-10T04:45:11.400Z,44.71
2023-04-10T04:46:11.369Z,44.66
2023-04-10T04:47:11.355Z,44.69
2023-04-10T04:48:11.388Z,44.75
2023-04-10T04:49:11.381Z,44.69
2023-04-10T04:50:11.487Z,44.78
2023-04-10T04:51:11.421Z,44.99
2023-04-10T04:52:11.450Z,45.04
2023-04-10T04:53:11.452Z,44.82
2023-04-10T04:54:11.441Z,44.97
2023-04-10T04:55:11.449Z,45.25
2023-04-10T04:56:11.462Z,45.11
2023-04-10T04:57:11.493Z,45.13
2023-04-10T04:58:11.470Z,45.31
2023-04-10T04:59:11.456Z,45.30
2023-04-10T05:01:40.714Z,45.34
2023-04-10T05:02:31.533Z,45.30
2023-04-10T05:03:31.630Z,45.29
2023-04-10T05:04:31.453Z,45.59
2023-04-10T05:05:31.451Z,45.97
2023-04-10T05:06:31.436Z,45.56
2023-04-10T05:07:31.761Z,45.60
2023-04-10T05:08:31.465Z,45.54
2023-04-10T05:09:31.427Z,45.56
2023-04-10T05:10:31.534Z,45.54
2023-04-10T05:11:31.421Z,45.51
2023-04-10T05:12:31.511Z,45.62
2023-04-10T05:13:31.398Z,45.44
2023-04-10T05:14:31.430Z,45.38
2023-04-10T05:15:31.372Z,45.09
2023-04-10T05:16:31.432Z,45.02
2023-04-10T05:17:31.452Z,45.00
2023-04-10T05:18:31.410Z,45.40
2023-04-10T05:19:31.390Z,45.03
2023-04-10T05:20:31.389Z,44.92
2023-04-10T05:21:31.457Z,44.84
2023-04-10T05:22:31.852Z,44.73
2023-04-10T05:23:31.354Z,44.80
2023-04-10T05:24:31.377Z,44.80
2023-04-10T05:25:31.371Z,44.78
2023-04-10T05:26:31.316Z,44.55
2023-04-10T05:27:31.380Z,44.54
2023-04-10T05:28:31.300Z,44.32
2023-04-10T05:29:31.311Z,44.26
2023-04-10T05:30:31.296Z,44.09
2023-04-10T05:31:31.748Z,44.20
2023-04-10T05:32:31.275Z,44.06
2023-04-10T05:33:31.573Z,44.00
2023-04-10T05:34:31.639Z,43.82
2023-04-10T05:35:31.271Z,43.68
2023-04-10T05:36:31.247Z,43.80
2023-04-10T05:37:31.273Z,43.55
2023-04-10T05:38:31.275Z,43.75
2023-04-10T05:39:31.272Z,43.46
2023-04-10T05:40:32.011Z,43.30
2023-04-10T05:41:31.661Z,43.21
2023-04-10T05:42:31.272Z,43.18
2023-04-10T05:43:31.203Z,43.09
2023-04-10T05:44:31.207Z,43.07
2023-04-10T05:48:10.761Z,42.61
2023-04-10T05:49:10.788Z,42.77
2023-04-10T05:50:10.766Z,42.52
2023-04-10T05:51:10.700Z,42.19
2023-04-10T05:52:10.730Z,42.16
2023-04-10T05:53:10.811Z,42.12
2023-04-10T05:54:10.791Z,42.19
2023-04-10T05:55:10.725Z,42.07
2023-04-10T05:56:10.725Z,42.50
2023-04-10T05:57:10.785Z,41.89
2023-04-10T05:58:10.739Z,41.75
2023-04-10T05:59:10.671Z,42.00
2023-04-10T06:00:10.682Z,42.19
2023-04-10T06:01:10.701Z,42.08
2023-04-10T06:02:10.781Z,41.92
2023-04-10T06:03:10.787Z,41.81
2023-04-10T06:04:10.906Z,41.73
2023-04-10T06:05:10.757Z,41.50
2023-04-10T06:06:10.684Z,41.24
2023-04-10T06:07:10.671Z,40.99
2023-04-10T06:08:10.677Z,40.85
2023-04-10T06:09:10.634Z,40.92
2023-04-10T06:10:10.705Z,40.66
2023-04-10T06:11:10.615Z,40.83
2023-04-10T06:12:10.625Z,40.97
2023-04-10T06:13:11.323Z,40.49
2023-04-10T06:14:10.626Z,40.35
2023-04-10T06:15:10.686Z,40.24
2023-04-10T06:16:10.804Z,39.66
2023-04-10T06:17:10.589Z,40.60
2023-04-10T06:18:10.609Z,39.79
2023-04-10T06:19:10.571Z,39.29
2023-04-10T06:20:10.651Z,39.96
2023-04-10T06:21:10.543Z,39.89
2023-04-10T06:22:10.579Z,39.61
2023-04-10T06:23:10.614Z,39.41
2023-04-10T06:24:12.808Z,39.46
2023-04-10T06:25:10.600Z,39.42
2023-04-10T06:26:10.658Z,40.85
2023-04-10T06:27:10.654Z,40.79
2023-04-10T06:28:10.737Z,40.17
2023-04-10T06:29:10.750Z,40.22
2023-04-10T06:30:10.889Z,39.64
2023-04-10T06:31:10.812Z,40.49
2023-04-10T06:32:10.793Z,40.37
2023-04-10T06:33:10.877Z,40.27
2023-04-10T06:34:10.831Z,39.99
2023-04-10T06:35:10.865Z,39.23
2023-04-10T06:36:10.885Z,39.78
2023-04-10T06:37:10.879Z,40.21
2023-04-10T06:38:11.747Z,40.36
2023-04-10T06:39:10.951Z,39.43
2023-04-10T06:40:11.001Z,40.48
2023-04-10T06:41:11.008Z,40.78
2023-04-10T06:42:11.044Z,40.72
2023-04-10T06:43:11.140Z,40.18
2023-04-10T06:44:11.497Z,40.49
2023-04-10T06:45:11.300Z,40.03
2023-04-10T06:46:11.314Z,39.41
2023-04-10T06:47:11.372Z,39.45
2023-04-10T06:48:11.441Z,39.03
2023-04-10T06:49:11.461Z,39.13
2023-04-10T06:50:11.437Z,38.64
2023-04-10T06:51:11.426Z,38.41
2023-04-10T06:52:11.479Z,38.53
2023-04-10T06:53:11.515Z,38.28
2023-04-10T06:54:11.549Z,39.14
2023-04-10T06:55:11.589Z,38.17
2023-04-10T06:56:11.528Z,38.14
2023-04-10T06:57:11.647Z,36.84
2023-04-10T06:58:11.790Z,36.73
2023-04-10T06:59:12.496Z,36.64
2023-04-10T07:00:11.720Z,37.09
2023-04-10T07:01:11.799Z,37.19
2023-04-10T07:02:11.836Z,38.06
2023-04-10T07:03:11.878Z,37.13
2023-04-10T07:04:11.981Z,37.34
2023-04-10T07:05:11.897Z,36.89
2023-04-10T07:06:11.964Z,37.02
2023-04-10T07:07:11.997Z,36.91
2023-04-10T07:08:12.029Z,36.45
2023-04-10T07:09:12.022Z,36.23
2023-04-10T07:10:12.059Z,36.36
2023-04-10T07:11:12.089Z,36.72
2023-04-10T07:12:12.478Z,36.45
2023-04-10T07:13:12.226Z,35.76
2023-04-10T07:14:12.771Z,35.70
2023-04-10T07:15:12.352Z,35.98
2023-04-10T07:16:12.335Z,36.31
2023-04-10T07:17:12.387Z,36.11
2023-04-10T07:18:12.468Z,36.44
2023-04-10T07:19:12.469Z,36.48
2023-04-10T07:20:12.594Z,35.94
2023-04-10T07:21:12.572Z,35.76
2023-04-10T07:22:12.637Z,35.78
2023-04-10T07:23:12.711Z,35.52
2023-04-10T07:24:12.757Z,35.91
2023-04-10T07:25:12.865Z,35.77
2023-04-10T07:26:12.824Z,35.08
2023-04-10T07:27:12.871Z,35.07
2023-04-10T07:28:12.963Z,36.00
2023-04-10T07:29:12.910Z,35.76
2023-04-10T07:30:13.838Z,35.50
2023-04-10T07:31:13.027Z,34.78
2023-04-10T07:32:13.186Z,34.63
2023-04-10T07:33:13.373Z,34.06
2023-04-10T07:34:13.075Z,34.68
2023-04-10T07:35:13.138Z,35.50
2023-04-10T07:36:13.175Z,34.77
2023-04-10T07:37:13.143Z,34.66
2023-04-10T07:38:13.232Z,34.60
2023-04-10T07:39:13.345Z,34.55
2023-04-10T07:40:13.918Z,34.29
2023-04-10T07:41:13.346Z,34.71
2023-04-10T07:42:13.394Z,33.61
2023-04-10T07:43:13.439Z,33.40
2023-04-10T07:44:13.460Z,34.11
2023-04-10T07:45:13.559Z,33.44
2023-04-10T07:46:13.558Z,33.25
2023-04-10T07:47:13.582Z,34.04
2023-04-10T07:48:13.611Z,33.84
2023-04-10T07:49:13.644Z,33.77
2023-04-10T07:50:13.639Z,34.33
2023-04-10T07:51:14.689Z,33.61
2023-04-10T07:52:13.690Z,33.00
2023-04-10T07:53:13.763Z,33.22
2023-04-10T07:54:13.883Z,33.46
2023-04-10T07:55:13.906Z,33.58
2023-04-10T07:56:13.969Z,32.62
2023-04-10T07:57:14.003Z,32.96
2023-04-10T07:58:14.101Z,32.20
2023-04-10T07:59:14.099Z,32.95
2023-04-10T08:00:14.125Z,32.85
2023-04-10T08:01:14.124Z,33.06
2023-04-10T08:02:14.265Z,32.40
2023-04-10T08:03:14.300Z,32.43
2023-04-10T08:04:14.522Z,31.81
2023-04-10T08:05:14.392Z,32.42
2023-04-10T08:06:14.275Z,32.28
2023-04-10T08:07:14.329Z,31.88
2023-04-10T08:08:14.407Z,32.51
2023-04-10T08:09:14.365Z,31.51
2023-04-10T08:10:14.375Z,31.34
2023-04-10T08:11:14.766Z,32.75
2023-04-10T08:12:14.376Z,31.81
2023-04-10T08:13:14.448Z,31.80
2023-04-10T08:14:18.248Z,31.74
2023-04-10T08:15:14.375Z,33.21
2023-04-10T08:16:14.420Z,33.03
2023-04-10T08:17:14.471Z,31.72
2023-04-10T08:18:14.425Z,32.36
2023-04-10T08:19:14.444Z,32.69
2023-04-10T08:20:14.385Z,32.57
2023-04-10T08:21:14.336Z,32.92
2023-04-10T08:22:14.334Z,32.57
2023-04-10T08:23:20.478Z,33.26
2023-04-10T08:24:15.367Z,31.62
2023-04-10T08:25:14.353Z,32.67
2023-04-10T08:26:14.332Z,33.44
2023-04-10T08:27:14.314Z,31.28
2023-04-10T08:28:14.365Z,31.07
2023-04-10T08:29:14.370Z,31.56
2023-04-10T08:30:14.314Z,30.78
2023-04-10T08:31:14.380Z,29.93
2023-04-10T08:32:14.243Z,30.63
2023-04-10T08:33:14.299Z,31.31
2023-04-10T08:34:14.301Z,30.23
2023-04-10T08:35:14.263Z,29.43
2023-04-10T08:36:14.381Z,29.32
2023-04-10T08:37:14.382Z,28.49
2023-04-10T08:38:14.859Z,28.77
2023-04-10T08:39:14.512Z,29.12
2023-04-10T08:40:14.525Z,28.54
2023-04-10T08:41:14.532Z,29.06
2023-04-10T08:42:14.604Z,28.21
2023-04-10T08:43:14.618Z,27.75
2023-04-10T08:44:14.606Z,27.16
2023-04-10T08:45:15.276Z,27.72
2023-04-10T08:46:14.950Z,25.68
2023-04-10T08:47:14.690Z,26.41
2023-04-10T08:48:14.709Z,26.60
2023-04-10T08:49:14.767Z,26.86
2023-04-10T08:50:14.814Z,26.92
2023-04-10T08:51:19.462Z,26.84
2023-04-10T08:52:15.769Z,27.62
2023-04-10T08:53:14.765Z,27.45
2023-04-10T08:54:14.797Z,27.65
2023-04-10T08:55:14.777Z,27.11
2023-04-10T08:56:14.765Z,27.11
2023-04-10T08:57:14.739Z,27.45
2023-04-10T08:58:14.732Z,26.57
2023-04-10T08:59:14.792Z,26.78
2023-04-10T09:00:23.100Z,25.99
2023-04-10T09:01:15.732Z,26.08
2023-04-10T09:02:14.798Z,25.60
2023-04-10T09:03:14.968Z,26.17
2023-04-10T09:04:14.841Z,26.89
2023-04-10T09:05:14.679Z,25.96
2023-04-10T09:06:14.672Z,25.97
2023-04-10T09:07:14.688Z,26.55
2023-04-10T09:08:14.693Z,25.80
2023-04-10T09:09:14.694Z,25.45
2023-04-10T09:10:14.723Z,26.00
2023-04-10T09:11:14.625Z,25.40
2023-04-10T09:12:14.620Z,25.41
2023-04-10T09:13:14.598Z,25.31
2023-04-10T09:14:14.624Z,26.02
2023-04-10T09:15:14.640Z,24.66
2023-04-10T09:16:14.620Z,23.43
2023-04-10T09:17:14.642Z,23.00
2023-04-10T09:18:14.589Z,21.53
2023-04-10T09:19:14.649Z,21.78
2023-04-10T09:20:14.668Z,22.77
2023-04-10T09:21:14.713Z,22.54
2023-04-10T09:22:14.763Z,22.99
2023-04-10T09:23:14.698Z,23.32
2023-04-10T09:24:14.916Z,22.30
2023-04-10T09:25:14.791Z,22.08
2023-04-10T09:26:14.894Z,21.85
2023-04-10T09:27:14.930Z,22.14
2023-04-10T09:28:14.907Z,22.01
2023-04-10T09:29:14.946Z,21.22
2023-04-10T09:30:14.887Z,21.84
2023-04-10T09:31:14.969Z,21.18
2023-04-10T09:32:15.022Z,21.17
2023-04-10T09:33:15.055Z,22.01
2023-04-10T09:34:15.078Z,21.64
2023-04-10T09:35:15.175Z,21.87
2023-04-10T09:36:15.379Z,21.72
2023-04-10T09:37:15.182Z,23.07
2023-04-10T09:38:15.193Z,22.53
2023-04-10T09:39:15.259Z,23.37
2023-04-10T09:40:15.326Z,23.10
2023-04-10T09:41:15.227Z,22.93
2023-04-10T09:42:15.342Z,23.19
2023-04-10T09:43:15.323Z,22.62
2023-04-10T09:44:15.384Z,22.77
2023-04-10T09:45:15.411Z,23.08
2023-04-10T09:46:15.408Z,22.75
2023-04-10T09:47:15.402Z,22.29
2023-04-10T09:48:15.470Z,22.02
2023-04-10T09:49:15.480Z,22.24
2023-04-10T09:50:15.465Z,22.76
2023-04-10T09:51:15.501Z,22.20
2023-04-10T09:52:15.513Z,21.99
2023-04-10T09:53:15.523Z,22.50
2023-04-10T09:54:15.578Z,23.21
2023-04-10T09:55:15.602Z,23.24
2023-04-10T09:56:15.520Z,22.93
2023-04-10T09:57:15.515Z,23.30
2023-04-10T09:58:15.559Z,23.03
2023-04-10T09:59:15.562Z,22.54
2023-04-10T10:00:15.614Z,23.02
2023-04-10T10:01:15.648Z,23.68
2023-04-10T10:02:15.771Z,21.64
2023-04-10T10:03:15.840Z,22.39
2023-04-10T10:04:15.917Z,22.45
2023-04-10T10:05:15.896Z,20.75
2023-04-10T10:06:15.901Z,21.98
2023-04-10T10:07:16.027Z,22.69
2023-04-10T10:08:16.038Z,24.17
2023-04-10T10:09:16.084Z,21.93
2023-04-10T10:10:16.133Z,22.17
2023-04-10T10:11:16.202Z,20.51
2023-04-10T10:12:16.198Z,21.13
2023-04-10T10:13:16.168Z,21.20
2023-04-10T10:14:16.183Z,21.03
2023-04-10T10:15:16.168Z,21.33
2023-04-10T10:16:16.204Z,20.97
2023-04-10T10:17:16.168Z,21.28
2023-04-10T10:18:16.192Z,19.93
2023-04-10T10:19:16.246Z,18.78
2023-04-10T10:20:16.188Z,20.28
2023-04-10T10:21:16.232Z,19.62
2023-04-10T10:22:16.864Z,19.47
2023-04-10T10:23:16.331Z,19.44
2023-04-10T10:24:16.408Z,20.35
2023-04-10T10:25:16.339Z,19.19
2023-04-10T10:26:16.376Z,19.33
2023-04-10T10:27:16.393Z,18.80
2023-04-10T10:28:16.458Z,19.85
2023-04-10T10:29:16.537Z,19.46
2023-04-10T10:30:28.689Z,19.63
2023-04-10T10:31:17.624Z,19.28
2023-04-10T10:32:16.501Z,20.65
2023-04-10T10:33:16.492Z,19.74
2023-04-10T10:34:16.549Z,20.12
2023-04-10T10:35:16.506Z,19.47
2023-04-10T10:36:16.506Z,18.71
2023-04-10T10:37:16.437Z,18.63
2023-04-10T10:38:16.442Z,19.98
2023-04-10T10:39:16.474Z,19.69
2023-04-10T10:40:16.497Z,20.47
2023-04-10T10:41:16.434Z,19.15
2023-04-10T10:42:16.414Z,18.69
2023-04-10T10:43:16.471Z,18.45
2023-04-10T10:44:16.427Z,20.61
2023-04-10T10:45:16.378Z,19.86
2023-04-10T10:46:16.787Z,19.52
2023-04-10T10:47:16.438Z,20.00
2023-04-10T10:48:16.399Z,18.02
2023-04-10T10:49:16.361Z,17.11
2023-04-10T10:50:16.410Z,17.81
2023-04-10T10:51:16.353Z,18.09
2023-04-10T10:52:16.388Z,18.14
2023-04-10T10:53:16.356Z,17.86
2023-04-10T10:54:16.338Z,17.32
2023-04-10T10:55:16.326Z,16.86
2023-04-10T10:56:16.327Z,17.68
2023-04-10T10:57:16.870Z,17.16
2023-04-10T10:58:16.313Z,16.55
2023-04-10T10:59:16.370Z,16.14
2023-04-10T11:00:16.427Z,15.99
2023-04-10T11:01:16.301Z,16.34
2023-04-10T11:02:16.328Z,16.41
2023-04-10T11:03:16.454Z,16.10
2023-04-10T11:04:16.338Z,16.06
2023-04-10T11:05:16.308Z,16.28
2023-04-10T11:06:16.268Z,16.45
2023-04-10T11:07:16.239Z,17.33
2023-04-10T11:08:16.247Z,17.39
2023-04-10T11:09:16.351Z,16.69
2023-04-10T11:10:16.197Z,16.63
2023-04-10T11:11:16.396Z,17.80
2023-04-10T11:12:16.218Z,17.47
2023-04-10T11:13:16.347Z,17.76
2023-04-10T11:14:16.359Z,17.65
2023-04-10T11:15:16.338Z,16.78
2023-04-10T11:16:16.373Z,16.35
2023-04-10T11:17:16.382Z,16.46
2023-04-10T11:18:16.391Z,17.20
2023-04-10T11:19:17.019Z,16.66
2023-04-10T11:20:16.377Z,17.78
2023-04-10T11:21:16.414Z,16.63
2023-04-10T11:22:16.507Z,16.52
2023-04-10T11:23:16.431Z,17.16
2023-04-10T11:24:16.462Z,17.12
2023-04-10T11:25:16.451Z,17.68
2023-04-10T11:26:16.562Z,17.88
2023-04-10T11:27:16.568Z,16.48
2023-04-10T11:28:16.576Z,17.00
2023-04-10T11:29:16.675Z,16.77
2023-04-10T11:30:16.679Z,16.25
2023-04-10T11:31:16.689Z,15.87
2023-04-10T11:32:17.024Z,15.65
2023-04-10T11:33:16.716Z,16.96
2023-04-10T11:34:16.812Z,17.44
2023-04-10T11:35:16.718Z,17.07
2023-04-10T11:36:16.798Z,16.72
2023-04-10T11:37:16.820Z,16.96
2023-04-10T11:38:16.826Z,18.34
2023-04-10T11:39:16.868Z,16.63
2023-04-10T11:40:16.849Z,17.65
2023-04-10T11:41:16.935Z,16.84
2023-04-10T11:42:16.972Z,17.50
2023-04-10T11:43:17.066Z,16.86
2023-04-10T11:44:17.019Z,18.04
2023-04-10T11:45:17.091Z,17.82
2023-04-10T11:46:17.158Z,18.45
2023-04-10T11:47:17.181Z,16.80
2023-04-10T11:48:17.169Z,17.11
2023-04-10T11:49:17.222Z,16.50
2023-04-10T11:50:17.223Z,16.82
2023-04-10T11:51:17.228Z,15.72
2023-04-10T11:52:17.268Z,16.87
2023-04-10T11:53:17.251Z,16.58
2023-04-10T11:54:17.314Z,16.60
2023-04-10T11:55:17.360Z,16.30
2023-04-10T11:56:17.339Z,16.54
2023-04-10T11:57:17.442Z,16.07
2023-04-10T11:58:17.444Z,15.94
2023-04-10T11:59:17.461Z,16.53
2023-04-10T12:00:17.500Z,15.95
2023-04-10T12:01:17.510Z,17.85
2023-04-10T12:02:17.682Z,16.58
2023-04-10T12:03:17.700Z,16.28
2023-04-10T12:04:17.923Z,16.20
2023-04-10T12:05:17.779Z,16.02
2023-04-10T12:06:17.658Z,15.76
2023-04-10T12:07:17.713Z,16.21
2023-04-10T12:08:17.754Z,15.65
2023-04-10T12:09:17.772Z,15.73
2023-04-10T12:10:17.770Z,14.89
2023-04-10T12:11:17.810Z,14.61
2023-04-10T12:12:17.852Z,15.07
2023-04-10T12:13:17.900Z,14.69
2023-04-10T12:14:17.940Z,14.73
2023-04-10T12:15:17.913Z,15.14
2023-04-10T12:16:18.039Z,14.13
2023-04-10T12:17:17.944Z,15.03
2023-04-10T12:18:17.991Z,15.01
2023-04-10T12:19:18.109Z,15.41
2023-04-10T12:20:17.990Z,15.72
2023-04-10T12:21:18.007Z,16.76
2023-04-10T12:22:18.127Z,15.54
2023-04-10T12:23:18.191Z,16.35
2023-04-10T12:24:18.237Z,14.54
2023-04-10T12:25:18.252Z,15.60
2023-04-10T12:26:18.289Z,15.47
2023-04-10T12:27:18.331Z,16.25
2023-04-10T12:28:18.363Z,16.28
2023-04-10T12:29:18.367Z,15.75
2023-04-10T12:30:18.428Z,13.83
2023-04-10T12:31:18.437Z,14.90
2023-04-10T12:32:18.517Z,15.71
2023-04-10T12:33:18.438Z,15.27
2023-04-10T12:34:18.563Z,15.52
2023-04-10T12:35:18.607Z,13.44
2023-04-10T12:36:18.633Z,14.44
2023-04-10T12:37:18.708Z,13.59
2023-04-10T12:38:18.739Z,12.98
2023-04-10T12:39:18.710Z,14.20
2023-04-10T12:40:18.770Z,14.63
2023-04-10T12:41:18.777Z,13.75
2023-04-10T12:42:18.785Z,13.33
2023-04-10T12:43:18.804Z,14.84
2023-04-10T12:44:18.942Z,13.63
2023-04-10T12:45:18.957Z,14.45
2023-04-10T12:46:18.924Z,14.67
2023-04-10T12:47:18.984Z,12.80
2023-04-10T12:48:18.965Z,14.28
2023-04-10T12:49:19.039Z,13.25
2023-04-10T12:50:19.009Z,13.34
2023-04-10T12:51:19.053Z,13.33
2023-04-10T12:52:19.104Z,13.02
2023-04-10T12:53:19.099Z,13.70
2023-04-10T12:54:19.145Z,13.48
2023-04-10T12:55:19.228Z,12.95
2023-04-10T12:56:19.127Z,13.12
2023-04-10T12:57:19.152Z,12.53
2023-04-10T12:58:19.203Z,13.11